Airfield :







YOU CAN JOIN US ON...

 
LOGIN :

Register | Disclaimer

   EN    FR    IT 

 









Legend :    VFR   Marginal VFR   IFR   Intensive IFR   Very Intensive IFR
Visi :
Ceiling :
>= 8 km
>= 3000ft
5 to 8 km
1000 to 3000 ft
1500m to 5 km
500 to 1000 ft
800 to 1500m
200 to 500 ft
< 800m
< 200 ft
Symbols :   Thunderstorms  Fog  Heavy snow  Heavy precipitations  Wind > 20 kt






- Airport Elevation : 522 ft
- IATA code : YBG


CYBG - CFB Bagotville

CURRENT METAR :
  • 171600Z 30012KT 25SM FEW030 M25/M29 A3063 RMK SC1 SLP395

EXPIRED METARs :
  • 171500Z 29010KT 25SM FEW030 M25/M29 A3064 RMK SC1 SLP396
  • 171400Z 28013KT 25SM FEW030 M26/M30 A3063 RMK SC1 SLP392

TAF TAF CYBG
Valid from the 17 at 15:00 until the 18 at 12:00 UTC


171430Z 1715/1812 28012KT P6SM FEW030
TEMPO 1715/1716 BKN030
BECMG 1715/1716 28015G25KT
FM171600 28015G25KT P6SM BKN025
TEMPO 1716/1810 SCT025
BECMG 1721/1723 29010KT
FM181000 29005KT P6SM SCT015 BKN025 RMK NXT FCST BY 171800Z



MET'MAP, your aeronautical weather chart ! - Copyright ORBIFLY December 2007 - Disclaimer

ORBIFLY MET'MAP TEAM :

Programming & Development : Alexandra Zaïnal
Concept & original design : Baudouin d'Aumeries
Assistance for programming : Marc-Olivier Méhu
Technical & hardware support : Manuel Goepfert

Contact : metmap@orbifly.com




SOURCES & CREDITS :

   NOAA